Time;durP1;ratioP1;P1;durP2;ratioP2;P2;SDS_P1;SDS_P2;PMS_P1;PMS_P2;Temp;Humidity;BMP_temperature;BMP_pressure;BME280_temperature;BME280_humidity;BME280_pressure;Samples;Min_cycle;Max_cycle;Signal;HPM_P1;HPM_P2
2023/10/20 00:01:16;;;;;;;1.2;1;;;;;;;;;;;;;
2023/10/20 00:03:42;;;;;;;1.3;1.2;;;;;;;;;;;;;
2023/10/20 00:06:07;;;;;;;1.7;1;;;;;;;;;;;;;
2023/10/20 00:08:34;;;;;;;0.8;0.8;;;;;;;;;;;;;
2023/10/20 00:11:00;;;;;;;1;0.9;;;;;;;;;;;;;
2023/10/20 00:13:25;;;;;;;1.5;0.9;;;;;;;;;;;;;
2023/10/20 00:15:50;;;;;;;0.8;0.8;;;;;;;;;;;;;
2023/10/20 00:18:18;;;;;;;0.7;0.7;;;;;;;;;;;;;
2023/10/20 00:20:43;;;;;;;2.9;0.8;;;;;;;;;;;;;
2023/10/20 00:23:08;;;;;;;0.7;0.7;;;;;;;;;;;;;
2023/10/20 00:25:33;;;;;;;0.9;0.8;;;;;;;;;;;;;
2023/10/20 00:28:00;;;;;;;1.6;1;;;;;;;;;;;;;
2023/10/20 00:30:25;;;;;;;0.8;0.8;;;;;;;;;;;;;
2023/10/20 00:32:53;;;;;;;0.9;0.8;;;;;;;;;;;;;
2023/10/20 00:35:18;;;;;;;1.8;1;;;;;;;;;;;;;
2023/10/20 00:37:43;;;;;;;0.7;0.7;;;;;;;;;;;;;
2023/10/20 00:40:09;;;;;;;1.2;0.8;;;;;;;;;;;;;
2023/10/20 00:42:40;;;;;;;0.8;0.8;;;;;;;;;;;;;
2023/10/20 00:45:06;;;;;;;0.8;0.8;;;;;;;;;;;;;
2023/10/20 00:47:31;;;;;;;0.7;0.6;;;;;;;;;;;;;
2023/10/20 00:49:57;;;;;;;0.7;0.6;;;;;;;;;;;;;
2023/10/20 00:52:21;;;;;;;0.9;0.9;;;;;;;;;;;;;
2023/10/20 00:54:47;;;;;;;0.5;0.5;;;;;;;;;;;;;
2023/10/20 00:57:12;;;;;;;0.7;0.7;;;;;;;;;;;;;
2023/10/20 00:59:39;;;;;;;0.9;0.7;;;;;;;;;;;;;
2023/10/20 01:02:04;;;;;;;1.2;0.7;;;;;;;;;;;;;
2023/10/20 01:04:32;;;;;;;0.7;0.7;;;;;;;;;;;;;
2023/10/20 01:06:58;;;;;;;0.6;0.6;;;;;;;;;;;;;
2023/10/20 01:09:24;;;;;;;0.7;0.6;;;;;;;;;;;;;
2023/10/20 01:11:49;;;;;;;0.8;0.6;;;;;;;;;;;;;
2023/10/20 01:14:15;;;;;;;0.6;0.6;;;;;;;;;;;;;
2023/10/20 01:16:40;;;;;;;1;0.6;;;;;;;;;;;;;
2023/10/20 01:19:05;;;;;;;0.5;0.5;;;;;;;;;;;;;
2023/10/20 01:21:30;;;;;;;0.5;0.5;;;;;;;;;;;;;
2023/10/20 01:23:55;;;;;;;0.6;0.5;;;;;;;;;;;;;
2023/10/20 01:26:20;;;;;;;0.8;0.5;;;;;;;;;;;;;
2023/10/20 01:28:45;;;;;;;0.7;0.7;;;;;;;;;;;;;
2023/10/20 01:31:12;;;;;;;1.1;0.9;;;;;;;;;;;;;
2023/10/20 01:33:37;;;;;;;1.3;1.1;;;;;;;;;;;;;
2023/10/20 01:36:03;;;;;;;1.3;1;;;;;;;;;;;;;
2023/10/20 01:38:29;;;;;;;1.6;1.1;;;;;;;;;;;;;
2023/10/20 01:40:55;;;;;;;1.1;1;;;;;;;;;;;;;
2023/10/20 01:43:20;;;;;;;1;0.7;;;;;;;;;;;;;
2023/10/20 01:45:45;;;;;;;0.7;0.6;;;;;;;;;;;;;
2023/10/20 01:48:10;;;;;;;0.7;0.7;;;;;;;;;;;;;
2023/10/20 01:50:39;;;;;;;0.7;0.7;;;;;;;;;;;;;
2023/10/20 01:53:04;;;;;;;0.7;0.7;;;;;;;;;;;;;
2023/10/20 01:55:30;;;;;;;1.1;0.7;;;;;;;;;;;;;
2023/10/20 01:57:54;;;;;;;0.4;0.4;;;;;;;;;;;;;
2023/10/20 02:00:22;;;;;;;0.4;0.4;;;;;;;;;;;;;
2023/10/20 02:02:46;;;;;;;0.7;0.7;;;;;;;;;;;;;
2023/10/20 02:05:15;;;;;;;0.8;0.7;;;;;;;;;;;;;
2023/10/20 02:07:44;;;;;;;0.7;0.6;;;;;;;;;;;;;
2023/10/20 02:10:08;;;;;;;0.8;0.7;;;;;;;;;;;;;
2023/10/20 02:12:34;;;;;;;0.6;0.6;;;;;;;;;;;;;
2023/10/20 02:14:59;;;;;;;0.6;0.6;;;;;;;;;;;;;
2023/10/20 02:17:25;;;;;;;0.7;0.7;;;;;;;;;;;;;
2023/10/20 02:19:50;;;;;;;0.6;0.6;;;;;;;;;;;;;
2023/10/20 02:22:16;;;;;;;0.4;0.4;;;;;;;;;;;;;
2023/10/20 02:24:41;;;;;;;0.3;0.3;;;;;;;;;;;;;
2023/10/20 02:27:06;;;;;;;0.4;0.4;;;;;;;;;;;;;
2023/10/20 02:29:33;;;;;;;0.5;0.5;;;;;;;;;;;;;
2023/10/20 02:31:56;;;;;;;0.5;0.5;;;;;;;;;;;;;
2023/10/20 02:34:24;;;;;;;0.4;0.4;;;;;;;;;;;;;
2023/10/20 02:36:49;;;;;;;0.5;0.4;;;;;;;;;;;;;
2023/10/20 02:39:15;;;;;;;0.5;0.5;;;;;;;;;;;;;
2023/10/20 02:41:40;;;;;;;0.5;0.5;;;;;;;;;;;;;
2023/10/20 02:44:06;;;;;;;1;0.7;;;;;;;;;;;;;
2023/10/20 02:46:32;;;;;;;0.5;0.5;;;;;;;;;;;;;
2023/10/20 02:49:00;;;;;;;0.4;0.4;;;;;;;;;;;;;
2023/10/20 02:51:25;;;;;;;0.5;0.5;;;;;;;;;;;;;
2023/10/20 02:53:50;;;;;;;0.8;0.7;;;;;;;;;;;;;
2023/10/20 02:56:15;;;;;;;0.8;0.6;;;;;;;;;;;;;
2023/10/20 02:58:43;;;;;;;2.4;0.8;;;;;;;;;;;;;
2023/10/20 03:01:06;;;;;;;0.9;0.7;;;;;;;;;;;;;
2023/10/20 03:03:33;;;;;;;0.6;0.6;;;;;;;;;;;;;
2023/10/20 03:05:58;;;;;;;1.5;0.5;;;;;;;;;;;;;
2023/10/20 03:08:23;;;;;;;0.5;0.5;;;;;;;;;;;;;
2023/10/20 03:10:48;;;;;;;0.4;0.4;;;;;;;;;;;;;
2023/10/20 03:13:16;;;;;;;1.2;0.6;;;;;;;;;;;;;
2023/10/20 03:15:40;;;;;;;0.5;0.5;;;;;;;;;;;;;
2023/10/20 03:18:05;;;;;;;0.6;0.6;;;;;;;;;;;;;
2023/10/20 03:20:32;;;;;;;0.4;0.4;;;;;;;;;;;;;
2023/10/20 03:22:57;;;;;;;0.5;0.4;;;;;;;;;;;;;
2023/10/20 03:25:22;;;;;;;0.5;0.5;;;;;;;;;;;;;
2023/10/20 03:27:49;;;;;;;0.6;0.6;;;;;;;;;;;;;
2023/10/20 03:30:15;;;;;;;0.7;0.6;;;;;;;;;;;;;
2023/10/20 03:32:40;;;;;;;0.4;0.4;;;;;;;;;;;;;
2023/10/20 03:35:06;;;;;;;0.7;0.7;;;;;;;;;;;;;
2023/10/20 03:37:31;;;;;;;0.7;0.7;;;;;;;;;;;;;
2023/10/20 03:39:55;;;;;;;0.9;0.7;;;;;;;;;;;;;
2023/10/20 03:42:21;;;;;;;0.7;0.7;;;;;;;;;;;;;
2023/10/20 03:44:48;;;;;;;0.6;0.6;;;;;;;;;;;;;
2023/10/20 03:47:13;;;;;;;0.4;0.4;;;;;;;;;;;;;
2023/10/20 03:49:38;;;;;;;2.2;1.5;;;;;;;;;;;;;
2023/10/20 03:52:06;;;;;;;3.1;1.7;;;;;;;;;;;;;
2023/10/20 03:54:29;;;;;;;1.4;0.7;;;;;;;;;;;;;
2023/10/20 03:56:56;;;;;;;1.7;1;;;;;;;;;;;;;
2023/10/20 03:59:20;;;;;;;1;0.9;;;;;;;;;;;;;
2023/10/20 04:02:50;;;;;;;0.6;0.6;;;;;;;13.57;91.37207;908.215;;;;
2023/10/20 04:05:19;;;;;;;0.7;0.6;;;;;;;13.58;91.27246;908.0793;;;;
2023/10/20 04:07:45;;;;;;;1;0.8;;;;;;;13.66;90.85059;908.0334;;;;
2023/10/20 04:10:20;;;;;;;0.9;0.6;;;;;;;13.66;90.79492;907.9556;;;;
2023/10/20 04:12:47;;;;;;;0.6;0.6;;;;;;;13.58;90.5459;908.038;;;;
2023/10/20 04:15:25;;;;;;;1.1;1;;;;;;;13.55;91.33398;907.9149;;;;
2023/10/20 04:17:54;;;;;;;1.3;1;;;;;;;13.5;91.59863;907.7167;;;;
2023/10/20 04:20:19;;;;;;;0.8;0.8;;;;;;;13.58;91.16895;907.6972;;;;
2023/10/20 04:22:45;;;;;;;1.6;1;;;;;;;13.51;91.46387;907.66;;;;
2023/10/20 04:25:12;;;;;;;1.3;0.8;;;;;;;13.59;91.06543;907.5505;;;;
2023/10/20 04:27:45;;;;;;;0.9;0.9;;;;;;;13.64;90.7666;907.5553;;;;
2023/10/20 04:42:55;;;;;;;19.6;13;;;;;;;13.89;89.15039;907.3876;;;;
2023/10/20 04:48:00;;;;;;;1.7;1.2;;;;;;;13.57;90.88867;907.3585;;;;
2023/10/20 04:52:20;;;;;;;1.9;1.1;;;;;;;13.62;90.7832;907.2288;;;;
2023/10/20 04:54:58;;;;;;;2.1;1.4;;;;;;;13.68;90.29297;907.1663;;;;
2023/10/20 04:57:35;;;;;;;2.6;1.6;;;;;;;13.74;90.03906;907.0856;;;;
2023/10/20 04:59:24;;;;;;;4;2.4;;;;;;;13.79;89.64746;906.9453;;;;
2023/10/20 05:02:07;;;;;;;2.3;2;;;;;;;13.8;89.61523;906.8649;;;;
2023/10/20 05:04:36;;;;;;;1.9;1.6;;;;;;;13.73;89.99121;906.9191;;;;
2023/10/20 05:07:05;;;;;;;2;1.5;;;;;;;13.67;90.25391;906.7072;;;;
2023/10/20 05:09:25;;;;;;;2.3;1.5;;;;;;;13.66;90.41309;906.4048;;;;
2023/10/20 05:11:50;;;;;;;2.2;1.3;;;;;;;13.7;90.12402;906.0612;;;;
2023/10/20 05:14:14;;;;;;;1.1;1;;;;;;;13.61;89.875;905.9021;;;;
2023/10/20 05:16:41;;;;;;;0.8;0.8;;;;;;;13.51;90.4502;906.0306;;;;
2023/10/20 05:19:05;;;;;;;1.2;0.9;;;;;;;13.48;90.5498;905.884;;;;
2023/10/20 05:21:38;;;;;;;0.8;0.8;;;;;;;13.72;89.54102;905.9449;;;;
2023/10/20 05:23:59;;;;;;;0.9;0.9;;;;;;;13.63;89.98047;905.8159;;;;
2023/10/20 05:26:26;;;;;;;0.8;0.8;;;;;;;13.44;91.11523;905.6426;;;;
2023/10/20 05:28:51;;;;;;;1;0.8;;;;;;;13.35;91.72852;905.4539;;;;
2023/10/20 05:31:20;;;;;;;0.7;0.7;;;;;;;13.19;93.66797;905.2483;;;;
2023/10/20 05:33:45;;;;;;;0.9;0.8;;;;;;;13.25;92.77637;905.3331;;;;
2023/10/20 05:36:13;;;;;;;1.7;0.7;;;;;;;13.3;91.52246;905.327;;;;
2023/10/20 05:38:39;;;;;;;0.8;0.6;;;;;;;13.32;91.44727;905.3514;;;;
2023/10/20 05:41:06;;;;;;;0.7;0.7;;;;;;;13.34;90.71582;905.3136;;;;
2023/10/20 05:43:31;;;;;;;0.3;0.3;;;;;;;13.52;90.0957;905.2283;;;;
2023/10/20 05:46:02;;;;;;;0.4;0.4;;;;;;;13.72;88.81641;905.1713;;;;
2023/10/20 05:48:27;;;;;;;0.4;0.4;;;;;;;13.95;87.15918;905.2528;;;;
2023/10/20 05:50:55;;;;;;;0.4;0.4;;;;;;;14.13;85.94043;905.2813;;;;
2023/10/20 05:53:20;;;;;;;0.5;0.5;;;;;;;14.32;85.01074;905.386;;;;
2023/10/20 05:55:51;;;;;;;1.1;0.6;;;;;;;14.31;84.97363;905.399;;;;
2023/10/20 05:58:22;;;;;;;0.8;0.8;;;;;;;14.24;84.74316;905.1536;;;;
2023/10/20 06:00:48;;;;;;;1.2;1;;;;;;;14.22;85.30176;905.1269;;;;
2023/10/20 06:03:11;;;;;;;1.3;1.2;;;;;;;14.24;85.08887;905.2214;;;;
2023/10/20 06:05:40;;;;;;;1.7;1.4;;;;;;;14.07;86.26172;905.0314;;;;
2023/10/20 06:08:05;;;;;;;1.8;1.3;;;;;;;14.11;86.11914;904.8611;;;;
2023/10/20 06:10:33;;;;;;;1.5;1.2;;;;;;;14.19;85.88379;904.9354;;;;
2023/10/20 06:12:58;;;;;;;3.3;1.1;;;;;;;14.23;85.4209;905.006;;;;
2023/10/20 06:15:25;;;;;;;2;1.5;;;;;;;14.04;86.97168;904.9752;;;;
2023/10/20 06:17:51;;;;;;;2.1;1.8;;;;;;;14.08;86.82813;905.017;;;;
2023/10/20 06:20:20;;;;;;;4.3;2.6;;;;;;;14.16;86.20117;904.8066;;;;
2023/10/20 06:22:44;;;;;;;2.8;1.9;;;;;;;14.23;85.94824;904.8111;;;;
2023/10/20 06:25:14;;;;;;;1.6;1.3;;;;;;;14.24;85.75488;904.8962;;;;
2023/10/20 06:27:39;;;;;;;2.3;1.8;;;;;;;14.08;86.18262;904.8596;;;;
2023/10/20 06:30:15;;;;;;;1.4;1.3;;;;;;;14.12;86.25098;904.9008;;;;
2023/10/20 06:32:42;;;;;;;2;1.4;;;;;;;14.21;86.1748;904.8197;;;;
2023/10/20 06:35:02;;;;;;;2.4;1.3;;;;;;;14.24;85.83496;904.8834;;;;
2023/10/20 06:37:35;;;;;;;2;1.2;;;;;;;14.15;86.10742;905.1099;;;;
2023/10/20 06:39:55;;;;;;;2.3;1.5;;;;;;;14.11;86.5127;905.0761;;;;
2023/10/20 06:42:26;;;;;;;2.5;1.2;;;;;;;14.17;86.60547;904.79;;;;
2023/10/20 06:44:55;;;;;;;1.6;1.1;;;;;;;14.19;86.56348;904.6672;;;;
2023/10/20 06:47:21;;;;;;;1.7;1.1;;;;;;;14.41;85.60352;904.7762;;;;
2023/10/20 06:49:45;;;;;;;2;1.5;;;;;;;14.41;84.92578;905.0058;;;;
2023/10/20 06:52:17;;;;;;;2.1;1.9;;;;;;;14.42;85.3291;904.8051;;;;
2023/10/20 06:54:37;;;;;;;1.6;1.3;;;;;;;14.51;85.04688;904.6783;;;;
2023/10/20 06:57:04;;;;;;;2.9;1.5;;;;;;;;;;;;;
2023/10/20 06:59:29;;;;;;;3.2;2;;;;;;;;;;;;;
2023/10/20 07:02:00;;;;;;;2.5;2;;;;;;;;;;;;;
2023/10/20 07:04:21;;;;;;;3.3;1.4;;;;;;;;;;;;;
2023/10/20 07:06:49;;;;;;;1.8;1.2;;;;;;;;;;;;;
2023/10/20 07:09:13;;;;;;;2.8;1.5;;;;;;;;;;;;;
2023/10/20 07:11:38;;;;;;;1.9;1.3;;;;;;;;;;;;;
2023/10/20 07:14:05;;;;;;;2.9;1.6;;;;;;;;;;;;;
2023/10/20 07:16:31;;;;;;;2.6;1.7;;;;;;;;;;;;;
2023/10/20 07:18:56;;;;;;;3.7;1.6;;;;;;;;;;;;;
2023/10/20 07:21:21;;;;;;;1.8;1.2;;;;;;;;;;;;;
2023/10/20 07:23:46;;;;;;;2.2;0.9;;;;;;;;;;;;;
2023/10/20 07:26:17;;;;;;;1.4;0.8;;;;;;;;;;;;;
2023/10/20 07:28:38;;;;;;;0.9;0.8;;;;;;;;;;;;;
2023/10/20 07:31:03;;;;;;;1.4;0.6;;;;;;;;;;;;;
2023/10/20 07:33:29;;;;;;;0.5;0.5;;;;;;;;;;;;;
2023/10/20 07:35:56;;;;;;;0.6;0.5;;;;;;;;;;;;;
2023/10/20 07:38:21;;;;;;;0.4;0.4;;;;;;;;;;;;;
2023/10/20 07:40:46;;;;;;;0.4;0.4;;;;;;;;;;;;;
2023/10/20 07:43:11;;;;;;;0.3;0.3;;;;;;;;;;;;;
2023/10/20 07:45:40;;;;;;;0.4;0.4;;;;;;;;;;;;;
2023/10/20 07:48:06;;;;;;;0.7;0.4;;;;;;;;;;;;;
2023/10/20 07:50:31;;;;;;;0.6;0.5;;;;;;;;;;;;;
2023/10/20 07:52:56;;;;;;;0.6;0.4;;;;;;;;;;;;;
2023/10/20 07:55:21;;;;;;;1.1;0.4;;;;;;;;;;;;;
2023/10/20 07:57:47;;;;;;;0.4;0.4;;;;;;;;;;;;;
2023/10/20 08:00:14;;;;;;;0.3;0.3;;;;;;;;;;;;;
2023/10/20 08:02:39;;;;;;;0.5;0.3;;;;;;;;;;;;;
2023/10/20 08:05:05;;;;;;;0.9;0.7;;;;;;;;;;;;;
2023/10/20 08:07:30;;;;;;;0.5;0.5;;;;;;;;;;;;;
2023/10/20 08:09:55;;;;;;;1;0.8;;;;;;;;;;;;;
2023/10/20 08:12:21;;;;;;;0.5;0.5;;;;;;;;;;;;;
2023/10/20 08:14:46;;;;;;;1;0.4;;;;;;;;;;;;;
2023/10/20 08:17:12;;;;;;;0.5;0.5;;;;;;;;;;;;;
2023/10/20 08:19:42;;;;;;;0.5;0.5;;;;;;;;;;;;;
2023/10/20 08:22:08;;;;;;;1.2;0.5;;;;;;;;;;;;;
2023/10/20 08:24:33;;;;;;;0.6;0.4;;;;;;;;;;;;;
2023/10/20 08:27:00;;;;;;;1.3;0.4;;;;;;;;;;;;;
2023/10/20 08:29:25;;;;;;;1;0.3;;;;;;;;;;;;;
2023/10/20 08:31:52;;;;;;;0.5;0.5;;;;;;;;;;;;;
2023/10/20 08:34:17;;;;;;;0.7;0.5;;;;;;;;;;;;;
2023/10/20 08:36:42;;;;;;;1;0.6;;;;;;;;;;;;;
2023/10/20 08:39:13;;;;;;;0.9;0.8;;;;;;;;;;;;;
2023/10/20 08:41:33;;;;;;;1.5;1.4;;;;;;;;;;;;;
2023/10/20 08:44:01;;;;;;;2.4;1.2;;;;;;;;;;;;;
2023/10/20 08:46:25;;;;;;;1.3;1.1;;;;;;;;;;;;;
2023/10/20 08:48:53;;;;;;;1.4;1;;;;;;;;;;;;;
2023/10/20 08:51:18;;;;;;;1.1;1;;;;;;;;;;;;;
2023/10/20 08:53:45;;;;;;;1;0.9;;;;;;;;;;;;;
2023/10/20 08:56:10;;;;;;;1.2;1;;;;;;;;;;;;;
2023/10/20 08:58:35;;;;;;;2.9;1.7;;;;;;;;;;;;;
2023/10/20 09:01:00;;;;;;;2.3;1.2;;;;;;;;;;;;;
2023/10/20 09:03:27;;;;;;;1;0.8;;;;;;;;;;;;;
2023/10/20 09:05:51;;;;;;;0.7;0.7;;;;;;;;;;;;;
2023/10/20 09:08:17;;;;;;;1.4;0.9;;;;;;;;;;;;;
2023/10/20 09:10:42;;;;;;;0.9;0.7;;;;;;;;;;;;;
2023/10/20 09:13:09;;;;;;;1.5;1.2;;;;;;;;;;;;;
2023/10/20 09:15:34;;;;;;;3.3;2.3;;;;;;;;;;;;;
2023/10/20 09:18:01;;;;;;;6.1;3.2;;;;;;;;;;;;;
2023/10/20 09:20:27;;;;;;;4.9;2.9;;;;;;;;;;;;;
2023/10/20 09:22:53;;;;;;;2.2;1.5;;;;;;;;;;;;;
2023/10/20 09:25:18;;;;;;;1.5;1.1;;;;;;;;;;;;;
2023/10/20 09:27:43;;;;;;;1.6;1;;;;;;;;;;;;;
2023/10/20 09:30:10;;;;;;;0.7;0.4;;;;;;;;;;;;;
2023/10/20 09:32:35;;;;;;;0.6;0.3;;;;;;;;;;;;;
2023/10/20 09:35:00;;;;;;;0.9;0.5;;;;;;;;;;;;;
2023/10/20 09:37:25;;;;;;;1.2;0.6;;;;;;;;;;;;;
2023/10/20 09:39:52;;;;;;;2.3;0.4;;;;;;;;;;;;;
2023/10/20 09:42:16;;;;;;;0.8;0.4;;;;;;;;;;;;;
2023/10/20 09:44:42;;;;;;;0.4;0.4;;;;;;;;;;;;;
2023/10/20 09:47:07;;;;;;;0.8;0.4;;;;;;;;;;;;;
2023/10/20 09:49:35;;;;;;;0.3;0.3;;;;;;;;;;;;;
2023/10/20 09:51:57;;;;;;;0.6;0.4;;;;;;;;;;;;;
2023/10/20 09:54:24;;;;;;;0.3;0.3;;;;;;;;;;;;;
2023/10/20 09:56:47;;;;;;;0.6;0.4;;;;;;;;;;;;;
2023/10/20 09:59:13;;;;;;;1;0.4;;;;;;;;;;;;;
2023/10/20 10:01:39;;;;;;;0.5;0.3;;;;;;;;;;;;;
2023/10/20 10:04:08;;;;;;;0.8;0.4;;;;;;;;;;;;;
2023/10/20 10:06:29;;;;;;;0.5;0.4;;;;;;;;;;;;;
2023/10/20 10:08:54;;;;;;;1;0.5;;;;;;;;;;;;;
2023/10/20 10:11:19;;;;;;;0.9;0.6;;;;;;;;;;;;;
2023/10/20 10:13:44;;;;;;;1.3;0.5;;;;;;;;;;;;;
2023/10/20 10:16:09;;;;;;;1;0.4;;;;;;;;;;;;;
2023/10/20 10:18:37;;;;;;;1;0.4;;;;;;;;;;;;;
2023/10/20 10:21:02;;;;;;;0.7;0.5;;;;;;;;;;;;;
2023/10/20 10:23:27;;;;;;;0.6;0.5;;;;;;;;;;;;;
2023/10/20 10:25:57;;;;;;;0.7;0.5;;;;;;;;;;;;;
2023/10/20 10:28:25;;;;;;;0.8;0.6;;;;;;;;;;;;;
2023/10/20 10:30:50;;;;;;;0.8;0.4;;;;;;;;;;;;;
2023/10/20 10:33:15;;;;;;;0.2;0.2;;;;;;;;;;;;;
2023/10/20 10:35:40;;;;;;;0.8;0.5;;;;;;;;;;;;;
2023/10/20 10:38:09;;;;;;;0.7;0.4;;;;;;;;;;;;;
2023/10/20 10:40:34;;;;;;;0.6;0.4;;;;;;;;;;;;;
2023/10/20 10:43:00;;;;;;;0.6;0.3;;;;;;;;;;;;;
2023/10/20 10:45:27;;;;;;;2.5;1.1;;;;;;;;;;;;;
2023/10/20 10:47:54;;;;;;;0.3;0.3;;;;;;;;;;;;;
2023/10/20 10:50:22;;;;;;;1.1;0.8;;;;;;;;;;;;;
2023/10/20 10:52:47;;;;;;;0.4;0.4;;;;;;;;;;;;;
2023/10/20 10:55:13;;;;;;;0.9;0.3;;;;;;;;;;;;;
2023/10/20 10:57:38;;;;;;;0.5;0.3;;;;;;;;;;;;;
2023/10/20 11:00:03;;;;;;;0.2;0.2;;;;;;;;;;;;;
2023/10/20 11:02:29;;;;;;;0.2;0.2;;;;;;;;;;;;;
2023/10/20 11:04:55;;;;;;;0.3;0.3;;;;;;;;;;;;;
2023/10/20 11:07:22;;;;;;;0.6;0.4;;;;;;;;;;;;;
2023/10/20 11:09:46;;;;;;;0.4;0.3;;;;;;;;;;;;;
2023/10/20 11:12:15;;;;;;;0.8;0.2;;;;;;;;;;;;;
2023/10/20 11:14:40;;;;;;;1.3;0.2;;;;;;;;;;;;;
2023/10/20 11:17:08;;;;;;;0.2;0.2;;;;;;;;;;;;;
2023/10/20 11:19:33;;;;;;;0.4;0.3;;;;;;;;;;;;;
2023/10/20 11:21:58;;;;;;;0.3;0.3;;;;;;;;;;;;;
2023/10/20 11:24:23;;;;;;;1.2;0.3;;;;;;;;;;;;;
2023/10/20 11:26:49;;;;;;;1;0.3;;;;;;;;;;;;;
2023/10/20 11:29:15;;;;;;;0.6;0.3;;;;;;;;;;;;;
2023/10/20 11:31:39;;;;;;;0.3;0.3;;;;;;;;;;;;;
2023/10/20 11:34:05;;;;;;;0.4;0.4;;;;;;;;;;;;;
2023/10/20 11:36:30;;;;;;;0.3;0.3;;;;;;;;;;;;;
2023/10/20 11:38:55;;;;;;;0.3;0.3;;;;;;;;;;;;;
2023/10/20 11:41:22;;;;;;;0.8;0.3;;;;;;;;;;;;;
2023/10/20 11:43:47;;;;;;;0.9;0.3;;;;;;;;;;;;;
2023/10/20 11:46:13;;;;;;;0.9;0.4;;;;;;;;;;;;;
2023/10/20 11:48:38;;;;;;;0.2;0.2;;;;;;;;;;;;;
2023/10/20 11:51:05;;;;;;;0.2;0.2;;;;;;;;;;;;;
2023/10/20 11:53:30;;;;;;;0.4;0.4;;;;;;;;;;;;;
2023/10/20 11:55:55;;;;;;;0.3;0.3;;;;;;;;;;;;;
2023/10/20 11:58:20;;;;;;;0.3;0.3;;;;;;;;;;;;;
2023/10/20 12:00:46;;;;;;;0.6;0.4;;;;;;;;;;;;;
2023/10/20 12:03:11;;;;;;;1.3;0.4;;;;;;;;;;;;;
2023/10/20 12:05:39;;;;;;;1.2;0.5;;;;;;;;;;;;;
2023/10/20 12:08:04;;;;;;;1.5;0.5;;;;;;;;;;;;;
2023/10/20 12:10:30;;;;;;;1.1;0.6;;;;;;;;;;;;;
2023/10/20 12:12:55;;;;;;;1.5;0.8;;;;;;;;;;;;;
2023/10/20 12:15:21;;;;;;;0.7;0.6;;;;;;;;;;;;;
2023/10/20 12:17:45;;;;;;;0.5;0.5;;;;;;;;;;;;;
2023/10/20 12:20:13;;;;;;;1.1;0.8;;;;;;;;;;;;;
2023/10/20 12:22:37;;;;;;;0.6;0.6;;;;;;;;;;;;;
2023/10/20 12:25:03;;;;;;;1;0.8;;;;;;;;;;;;;
2023/10/20 12:27:28;;;;;;;0.6;0.6;;;;;;;;;;;;;
2023/10/20 12:29:54;;;;;;;0.7;0.7;;;;;;;;;;;;;
2023/10/20 12:32:19;;;;;;;1.2;0.7;;;;;;;;;;;;;
2023/10/20 12:34:45;;;;;;;0.7;0.7;;;;;;;;;;;;;
2023/10/20 12:37:10;;;;;;;1.3;0.9;;;;;;;;;;;;;
2023/10/20 12:39:39;;;;;;;0.7;0.7;;;;;;;;;;;;;
2023/10/20 12:42:04;;;;;;;0.8;0.8;;;;;;;;;;;;;
2023/10/20 12:44:31;;;;;;;1.2;1.1;;;;;;;;;;;;;
2023/10/20 12:46:55;;;;;;;1.4;0.8;;;;;;;;;;;;;
2023/10/20 12:49:22;;;;;;;0.7;0.7;;;;;;;;;;;;;
2023/10/20 12:51:47;;;;;;;1;0.9;;;;;;;;;;;;;
2023/10/20 12:54:13;;;;;;;1.6;1.2;;;;;;;;;;;;;
2023/10/20 12:56:38;;;;;;;1.1;0.9;;;;;;;;;;;;;
2023/10/20 12:59:05;;;;;;;0.8;0.8;;;;;;;;;;;;;
2023/10/20 13:01:30;;;;;;;1.1;0.8;;;;;;;;;;;;;
2023/10/20 13:03:56;;;;;;;0.9;0.7;;;;;;;;;;;;;
2023/10/20 13:06:21;;;;;;;0.7;0.7;;;;;;;;;;;;;
2023/10/20 13:08:50;;;;;;;1.1;0.7;;;;;;;;;;;;;
2023/10/20 13:11:14;;;;;;;0.8;0.8;;;;;;;;;;;;;
2023/10/20 13:13:41;;;;;;;0.9;0.9;;;;;;;;;;;;;
2023/10/20 13:16:06;;;;;;;0.8;0.8;;;;;;;;;;;;;
2023/10/20 13:18:31;;;;;;;1;0.7;;;;;;;;;;;;;
2023/10/20 13:20:56;;;;;;;1;0.9;;;;;;;;;;;;;
2023/10/20 13:23:23;;;;;;;0.9;0.9;;;;;;;;;;;;;
2023/10/20 13:25:48;;;;;;;1.1;1;;;;;;;;;;;;;
2023/10/20 13:28:14;;;;;;;1.1;0.9;;;;;;;;;;;;;
2023/10/20 13:30:39;;;;;;;1.2;1;;;;;;;;;;;;;
2023/10/20 13:33:07;;;;;;;1.2;1.1;;;;;;;;;;;;;
2023/10/20 13:35:30;;;;;;;1.1;0.8;;;;;;;;;;;;;
2023/10/20 13:37:56;;;;;;;1;1;;;;;;;;;;;;;
2023/10/20 13:40:22;;;;;;;1.4;1;;;;;;;;;;;;;
2023/10/20 13:42:47;;;;;;;1.1;1;;;;;;;;;;;;;
2023/10/20 13:45:12;;;;;;;1.4;1.1;;;;;;;;;;;;;
2023/10/20 13:47:40;;;;;;;0.8;0.8;;;;;;;;;;;;;
2023/10/20 13:50:05;;;;;;;0.8;0.8;;;;;;;;;;;;;
2023/10/20 13:52:32;;;;;;;1;0.8;;;;;;;;;;;;;
2023/10/20 13:54:57;;;;;;;2.1;1;;;;;;;;;;;;;
2023/10/20 13:57:27;;;;;;;2.2;0.9;;;;;;;;;;;;;
2023/10/20 13:59:54;;;;;;;1.5;1.1;;;;;;;;;;;;;
2023/10/20 14:02:19;;;;;;;0.9;0.7;;;;;;;;;;;;;
2023/10/20 14:04:44;;;;;;;0.9;0.9;;;;;;;;;;;;;
2023/10/20 14:07:09;;;;;;;1;0.7;;;;;;;;;;;;;
2023/10/20 14:09:36;;;;;;;1;0.8;;;;;;;;;;;;;
2023/10/20 14:12:01;;;;;;;1.8;1;;;;;;;;;;;;;
2023/10/20 14:14:27;;;;;;;2.1;0.9;;;;;;;;;;;;;
2023/10/20 14:16:54;;;;;;;1.1;1;;;;;;;;;;;;;
2023/10/20 14:19:17;;;;;;;0.6;0.6;;;;;;;;;;;;;
2023/10/20 14:21:44;;;;;;;0.6;0.6;;;;;;;;;;;;;
2023/10/20 14:24:09;;;;;;;0.7;0.7;;;;;;;;;;;;;
2023/10/20 14:26:34;;;;;;;0.8;0.8;;;;;;;;;;;;;
2023/10/20 14:28:59;;;;;;;0.6;0.5;;;;;;;;;;;;;
2023/10/20 14:31:26;;;;;;;0.5;0.5;;;;;;;;;;;;;
2023/10/20 14:33:51;;;;;;;0.4;0.4;;;;;;;;;;;;;
2023/10/20 14:36:19;;;;;;;0.4;0.4;;;;;;;;;;;;;
2023/10/20 14:38:44;;;;;;;1.1;0.5;;;;;;;;;;;;;
2023/10/20 14:41:11;;;;;;;0.8;0.6;;;;;;;;;;;;;
2023/10/20 14:43:36;;;;;;;0.4;0.4;;;;;;;;;;;;;
2023/10/20 14:46:02;;;;;;;0.6;0.6;;;;;;;;;;;;;
2023/10/20 14:48:28;;;;;;;0.4;0.4;;;;;;;;;;;;;
2023/10/20 14:50:55;;;;;;;0.5;0.5;;;;;;;;;;;;;
2023/10/20 14:53:20;;;;;;;0.3;0.3;;;;;;;;;;;;;
2023/10/20 14:55:45;;;;;;;1.1;0.5;;;;;;;;;;;;;
2023/10/20 14:58:11;;;;;;;0.5;0.5;;;;;;;;;;;;;
2023/10/20 15:00:37;;;;;;;0.5;0.4;;;;;;;;;;;;;
2023/10/20 15:03:02;;;;;;;0.3;0.3;;;;;;;;;;;;;
2023/10/20 15:05:27;;;;;;;0.3;0.3;;;;;;;;;;;;;
2023/10/20 15:07:52;;;;;;;0.4;0.4;;;;;;;;;;;;;
2023/10/20 15:10:18;;;;;;;0.4;0.4;;;;;;;;;;;;;
2023/10/20 15:12:45;;;;;;;0.5;0.5;;;;;;;;;;;;;
2023/10/20 15:15:08;;;;;;;0.9;0.5;;;;;;;;;;;;;
2023/10/20 15:17:35;;;;;;;0.6;0.6;;;;;;;;;;;;;
2023/10/20 15:20:01;;;;;;;0.5;0.5;;;;;;;;;;;;;
2023/10/20 15:22:26;;;;;;;1;0.3;;;;;;;;;;;;;
2023/10/20 15:24:52;;;;;;;0.3;0.3;;;;;;;;;;;;;
2023/10/20 15:27:18;;;;;;;0.3;0.3;;;;;;;;;;;;;
2023/10/20 15:29:43;;;;;;;0.4;0.4;;;;;;;;;;;;;
2023/10/20 15:32:11;;;;;;;0.6;0.3;;;;;;;;;;;;;
2023/10/20 15:34:35;;;;;;;0.2;0.2;;;;;;;;;;;;;
2023/10/20 15:37:01;;;;;;;0.2;0.2;;;;;;;;;;;;;
2023/10/20 15:39:26;;;;;;;0.4;0.4;;;;;;;;;;;;;
2023/10/20 15:41:53;;;;;;;0.5;0.3;;;;;;;;;;;;;
2023/10/20 15:44:18;;;;;;;0.3;0.3;;;;;;;;;;;;;
2023/10/20 15:46:44;;;;;;;0.4;0.2;;;;;;;;;;;;;
2023/10/20 15:49:09;;;;;;;0.3;0.3;;;;;;;;;;;;;
2023/10/20 15:51:35;;;;;;;0.3;0.3;;;;;;;;;;;;;
2023/10/20 15:54:00;;;;;;;0.2;0.2;;;;;;;;;;;;;
2023/10/20 15:56:28;;;;;;;1.4;0.5;;;;;;;;;;;;;
2023/10/20 15:58:52;;;;;;;0.4;0.4;;;;;;;;;;;;;
2023/10/20 16:01:18;;;;;;;0.3;0.3;;;;;;;;;;;;;
2023/10/20 16:03:43;;;;;;;0.3;0.3;;;;;;;;;;;;;
2023/10/20 16:06:10;;;;;;;0.3;0.2;;;;;;;;;;;;;
2023/10/20 16:08:34;;;;;;;0.4;0.4;;;;;;;;;;;;;
2023/10/20 16:11:02;;;;;;;0.2;0.2;;;;;;;;;;;;;
2023/10/20 16:13:27;;;;;;;0.2;0.2;;;;;;;;;;;;;
2023/10/20 16:15:51;;;;;;;0.4;0.2;;;;;;;;;;;;;
2023/10/20 16:18:16;;;;;;;0.3;0.3;;;;;;;;;;;;;
2023/10/20 16:20:44;;;;;;;0.2;0.2;;;;;;;;;;;;;
2023/10/20 16:23:08;;;;;;;0.3;0.3;;;;;;;;;;;;;
2023/10/20 16:25:37;;;;;;;0.3;0.3;;;;;;;;;;;;;
2023/10/20 16:28:02;;;;;;;0.4;0.3;;;;;;;;;;;;;
2023/10/20 16:30:29;;;;;;;0.3;0.3;;;;;;;;;;;;;
2023/10/20 16:32:54;;;;;;;0.4;0.4;;;;;;;;;;;;;
2023/10/20 16:35:20;;;;;;;0.4;0.4;;;;;;;;;;;;;
2023/10/20 16:37:45;;;;;;;0.4;0.3;;;;;;;;;;;;;
2023/10/20 16:40:14;;;;;;;0.2;0.2;;;;;;;;;;;;;
2023/10/20 16:42:43;;;;;;;0.4;0.4;;;;;;;;;;;;;
2023/10/20 16:45:09;;;;;;;0.4;0.4;;;;;;;;;;;;;
2023/10/20 16:47:35;;;;;;;0.4;0.4;;;;;;;;;;;;;
2023/10/20 16:50:00;;;;;;;0.3;0.3;;;;;;;;;;;;;
2023/10/20 16:52:26;;;;;;;0.2;0.2;;;;;;;;;;;;;
2023/10/20 16:54:52;;;;;;;0.1;0.1;;;;;;;;;;;;;
2023/10/20 16:57:17;;;;;;;0.2;0.2;;;;;;;;;;;;;
2023/10/20 16:59:42;;;;;;;0.2;0.2;;;;;;;;;;;;;
2023/10/20 17:02:07;;;;;;;0.3;0.3;;;;;;;;;;;;;
2023/10/20 17:04:32;;;;;;;0.2;0.2;;;;;;;;;;;;;
2023/10/20 17:06:57;;;;;;;0.2;0.2;;;;;;;;;;;;;
2023/10/20 17:09:23;;;;;;;0.2;0.2;;;;;;;;;;;;;
2023/10/20 17:11:48;;;;;;;0.1;0.1;;;;;;;;;;;;;
2023/10/20 17:14:17;;;;;;;0.3;0.3;;;;;;;;;;;;;
2023/10/20 17:16:45;;;;;;;0.3;0.3;;;;;;;;;;;;;
2023/10/20 17:19:10;;;;;;;0.4;0.4;;;;;;;;;;;;;
2023/10/20 17:21:36;;;;;;;0.4;0.4;;;;;;;;;;;;;
2023/10/20 17:24:01;;;;;;;0.6;0.4;;;;;;;;;;;;;
2023/10/20 17:26:27;;;;;;;0.4;0.4;;;;;;;;;;;;;
2023/10/20 17:28:52;;;;;;;0.5;0.5;;;;;;;;;;;;;
2023/10/20 17:31:20;;;;;;;0.5;0.4;;;;;;;;;;;;;
2023/10/20 17:33:44;;;;;;;0.3;0.3;;;;;;;;;;;;;
2023/10/20 17:36:10;;;;;;;0.6;0.6;;;;;;;;;;;;;
2023/10/20 17:38:35;;;;;;;0.6;0.5;;;;;;;;;;;;;
2023/10/20 17:41:01;;;;;;;0.4;0.4;;;;;;;;;;;;;
2023/10/20 17:43:25;;;;;;;1.1;0.5;;;;;;;;;;;;;
2023/10/20 17:45:52;;;;;;;0.6;0.5;;;;;;;;;;;;;
2023/10/20 17:48:17;;;;;;;1;0.8;;;;;;;;;;;;;
2023/10/20 17:50:43;;;;;;;0.8;0.7;;;;;;;;;;;;;
2023/10/20 17:53:09;;;;;;;0.5;0.4;;;;;;;;;;;;;
2023/10/20 17:55:35;;;;;;;0.4;0.4;;;;;;;;;;;;;
2023/10/20 17:58:00;;;;;;;0.6;0.3;;;;;;;;;;;;;
2023/10/20 18:00:25;;;;;;;0.4;0.4;;;;;;;;;;;;;
2023/10/20 18:02:51;;;;;;;0.4;0.3;;;;;;;;;;;;;
2023/10/20 18:05:20;;;;;;;0.3;0.3;;;;;;;;;;;;;
2023/10/20 18:07:45;;;;;;;0.3;0.3;;;;;;;;;;;;;
2023/10/20 18:10:12;;;;;;;0.4;0.3;;;;;;;;;;;;;
2023/10/20 18:12:37;;;;;;;0.2;0.2;;;;;;;;;;;;;
2023/10/20 18:15:02;;;;;;;0.2;0.1;;;;;;;;;;;;;
2023/10/20 18:17:27;;;;;;;0.2;0.2;;;;;;;;;;;;;
2023/10/20 18:19:54;;;;;;;0.2;0.2;;;;;;;;;;;;;
2023/10/20 18:22:19;;;;;;;0.2;0.2;;;;;;;;;;;;;
2023/10/20 18:24:44;;;;;;;0.1;0.1;;;;;;;;;;;;;
2023/10/20 18:27:09;;;;;;;0.3;0.3;;;;;;;;;;;;;
2023/10/20 18:29:36;;;;;;;1;0.2;;;;;;;;;;;;;
2023/10/20 18:32:01;;;;;;;0.1;0.1;;;;;;;;;;;;;
2023/10/20 18:34:28;;;;;;;0.1;0.1;;;;;;;;;;;;;
2023/10/20 18:36:55;;;;;;;0.1;0.1;;;;;;;;;;;;;
2023/10/20 18:39:23;;;;;;;0.3;0.2;;;;;;;;;;;;;
2023/10/20 18:41:46;;;;;;;0.4;0.4;;;;;;;;;;;;;
2023/10/20 18:44:11;;;;;;;0.4;0.4;;;;;;;;;;;;;
2023/10/20 18:46:37;;;;;;;0.2;0.2;;;;;;;;;;;;;
2023/10/20 18:49:04;;;;;;;2.1;1.3;;;;;;;;;;;;;
2023/10/20 18:51:30;;;;;;;1;0.4;;;;;;;;;;;;;
2023/10/20 18:53:55;;;;;;;0.3;0.3;;;;;;;;;;;;;
2023/10/20 18:56:21;;;;;;;0.1;0.1;;;;;;;;;;;;;
2023/10/20 18:58:45;;;;;;;0.2;0.2;;;;;;;;;;;;;
2023/10/20 19:01:10;;;;;;;0.4;0.4;;;;;;;;;;;;;
2023/10/20 19:03:37;;;;;;;0.2;0.2;;;;;;;;;;;;;
2023/10/20 19:06:02;;;;;;;0.3;0.3;;;;;;;;;;;;;
2023/10/20 19:08:28;;;;;;;0.8;0.2;;;;;;;;;;;;;
2023/10/20 19:10:53;;;;;;;0.3;0.3;;;;;;;;;;;;;
2023/10/20 19:13:20;;;;;;;0.7;0.3;;;;;;;;;;;;;
2023/10/20 19:15:45;;;;;;;0.4;0.4;;;;;;;;;;;;;
2023/10/20 19:18:11;;;;;;;0.6;0.4;;;;;;;;;;;;;
2023/10/20 19:20:36;;;;;;;0.4;0.2;;;;;;;;;;;;;
2023/10/20 19:23:02;;;;;;;0.2;0.2;;;;;;;;;;;;;
2023/10/20 19:25:26;;;;;;;0.7;0.2;;;;;;;;;;;;;
2023/10/20 19:27:55;;;;;;;1;0.3;;;;;;;;;;;;;
2023/10/20 19:30:20;;;;;;;0.6;0.3;;;;;;;;;;;;;
2023/10/20 19:32:48;;;;;;;0.4;0.4;;;;;;;;;;;;;
2023/10/20 19:35:12;;;;;;;0.7;0.6;;;;;;;;;;;;;
2023/10/20 19:37:40;;;;;;;0.5;0.5;;;;;;;;;;;;;
2023/10/20 19:40:06;;;;;;;0.7;0.5;;;;;;;;;;;;;
2023/10/20 19:42:32;;;;;;;0.3;0.3;;;;;;;;;;;;;
2023/10/20 19:45:00;;;;;;;0.1;0.1;;;;;;;;;;;;;